マカオ の空港の天気 - METARとTAF

マカオ国際空港 ( VMMC / MFM ) - マカオ タイパ島
飛行場実況気象(Metar)
観測時間01/29 14:30 CST (01/29 06:30 UTC)
風向・風速北北東 3m/s
視程9000m
天気現象
少しの雲 雲底高度 550m
全天の4割程度の雲 雲底高度 910m
気温20℃
湿度73%
気圧1012hPa
METARVMMC 290630Z 02006KT 350V050 9000 FEW018 SCT030 20/15 Q1012 NOSIG
過去の天気等 Google飛行場航空写真 Wunderground天気予報

過去48時間のMETAR

飛行場予報(TAF)
発表時間: 1/29 13:00 CST (1/29 05:00 UTC)
予報対象時間: 29日14時 CST ~ 30日20時 CST
風向・風速北 5m/s
視程10km以上
少しの雲 雲底高度 760m
全天の4割程度の雲 雲底高度 1370m
29日14時 CST ~ 29日20時 CST に一時的に
風向・風速東 4m/s
30日2時 CST ~ 30日12時 CST に一時的に
風向・風速北 8m/s 瞬間風速 13m/s
視程4000m
天気現象弱い雨 もや
TAF VMMC 290500Z 2906/3012 36010KT 9999 FEW025 SCT045
TEMPO 2906/2912 08008KT
TEMPO 2918/3004 35015G25KT 4000 -RA BR